createdAt,value
2019-06-26T12:30:46.797Z,101473.41
2019-06-26T12:33:18.323Z,101469.39
2019-06-26T12:35:47.530Z,101469.75
2019-06-26T12:38:17.729Z,101469.97
2019-06-26T12:40:48.575Z,101464.28
2019-06-26T12:50:14.147Z,101469.22
2019-06-26T12:53:13.844Z,101469.84
2019-06-26T12:55:52.109Z,101481.31
2019-06-26T12:58:27.315Z,101459.44
2019-06-26T13:00:57.482Z,101459.43
2019-06-26T13:03:32.324Z,101462.56
2019-06-26T13:06:07.420Z,101450.15
2019-06-26T13:08:38.255Z,101456.95
2019-06-26T13:11:07.269Z,101461.89
2019-06-26T13:14:01.147Z,101466.77
2019-06-26T13:16:15.098Z,101462.02
2019-06-26T13:18:50.175Z,101463.05
2019-06-26T13:21:19.287Z,101461.86
2019-06-26T13:23:57.269Z,101461.89
2019-06-26T13:26:32.353Z,101454.55
2019-06-26T13:29:09.968Z,101463.89
2019-06-26T13:31:39.451Z,101462.00
2019-06-26T13:34:14.338Z,101458.73
2019-06-26T13:37:07.305Z,101472.37
2019-06-26T13:39:38.556Z,101452.03
2019-06-26T13:42:15.319Z,101463.25
2019-06-26T13:44:51.186Z,101448.74
2019-06-26T13:47:20.188Z,101448.67
2019-06-26T13:49:49.128Z,101450.61
2019-06-26T13:52:24.459Z,101456.19
2019-06-26T13:54:57.029Z,101443.05
2019-06-26T13:57:23.954Z,101443.73
2019-06-26T13:59:53.829Z,101447.87
2019-06-26T14:02:29.880Z,101442.37
2019-06-26T14:04:58.996Z,101440.94
2019-06-26T14:07:28.035Z,101453.97
2019-06-26T14:09:57.062Z,101446.55
2019-06-26T14:12:26.913Z,101455.22
2019-06-26T14:14:57.764Z,101455.01
2019-06-26T14:17:28.053Z,101444.69
2019-06-26T14:19:57.297Z,101450.86
2019-06-26T14:22:26.526Z,101452.30
2019-06-26T14:24:56.168Z,101438.68
2019-06-26T14:27:26.447Z,101451.45
2019-06-26T14:29:55.967Z,101440.72
2019-06-26T14:32:28.368Z,101450.67
2019-06-26T14:35:04.248Z,101436.70
2019-06-26T14:37:51.581Z,101441.73
2019-06-26T14:40:25.733Z,101439.11
2019-06-26T14:42:57.639Z,101435.40
2019-06-26T14:45:26.683Z,101452.02
2019-06-26T14:47:57.311Z,101435.72
2019-06-26T14:50:35.592Z,101444.98
2019-06-26T14:53:06.516Z,101444.58
2019-06-26T14:55:36.819Z,101450.03
2019-06-26T14:58:12.469Z,101444.05
2019-06-26T15:00:48.481Z,101453.30
2019-06-26T15:03:18.389Z,101446.99
2019-06-26T15:05:50.447Z,101447.50
2019-06-26T15:08:20.755Z,101444.04
2019-06-26T15:10:49.880Z,101447.43
2019-06-26T15:13:25.605Z,101441.50
2019-06-26T15:16:02.407Z,101452.09
2019-06-26T15:18:37.337Z,101446.41
2019-06-26T15:21:09.203Z,101443.69
2019-06-26T15:23:44.085Z,101445.96
2019-06-26T15:26:13.989Z,101443.05
2019-06-26T15:28:46.409Z,101441.06
2019-06-26T15:31:15.890Z,101441.30
2019-06-26T15:33:45.195Z,101435.58
2019-06-26T15:36:21.710Z,101444.27
2019-06-26T15:39:09.120Z,101435.23
2019-06-26T15:41:43.441Z,101448.46
2019-06-26T15:44:18.380Z,101438.11
2019-06-26T15:46:52.976Z,101445.12
2019-06-26T15:49:24.171Z,101439.34
2019-06-26T15:51:55.307Z,101433.41
2019-06-26T15:54:27.330Z,101429.13
2019-06-26T15:57:02.238Z,101446.94
2019-06-26T15:59:31.330Z,101425.19
2019-06-26T16:02:00.746Z,101433.64
2019-06-26T16:04:35.088Z,101421.38
2019-06-26T16:07:03.547Z,101419.97
2019-06-26T16:09:41.770Z,101413.91
2019-06-26T16:12:12.255Z,101423.09
2019-06-26T16:14:41.043Z,101412.20
2019-06-26T16:17:17.416Z,101414.90
2019-06-26T16:19:46.390Z,101414.34
2019-06-26T16:22:31.578Z,101418.57
2019-06-26T16:24:52.592Z,101408.44
2019-06-26T16:27:27.608Z,101415.45
2019-06-26T16:29:56.548Z,101404.78
2019-06-26T16:32:25.714Z,101420.52
2019-06-26T16:34:54.674Z,101412.69
2019-06-26T16:37:25.520Z,101409.30
2019-06-26T16:40:00.548Z,101409.30
2019-06-26T16:42:40.968Z,101411.34
2019-06-26T16:45:11.381Z,101410.55
2019-06-26T16:47:44.575Z,101412.81
2019-06-26T16:50:14.580Z,101420.97
2019-06-26T16:52:49.782Z,101409.22
2019-06-26T16:55:15.918Z,101414.32
2019-06-26T16:57:51.151Z,101399.17
2019-06-26T17:00:20.997Z,101417.47
2019-06-26T17:02:49.918Z,101411.94
2019-06-26T17:05:19.100Z,101412.00
2019-06-26T17:07:54.236Z,101426.11
2019-06-26T17:10:30.755Z,101405.09
2019-06-26T17:13:05.830Z,101402.56
2019-06-26T17:15:35.621Z,101405.63
2019-06-26T17:18:05.247Z,101415.98
2019-06-26T17:20:34.228Z,101408.64
2019-06-26T17:23:09.391Z,101400.27
2019-06-26T17:25:41.210Z,101407.11
2019-06-26T17:28:16.786Z,101407.95
2019-06-26T17:30:45.899Z,101418.86
2019-06-26T17:33:21.506Z,101406.29
2019-06-26T17:35:50.757Z,101404.62
2019-06-26T17:38:26.319Z,101426.30
2019-06-26T17:40:59.683Z,101397.46
2019-06-26T17:43:28.593Z,101409.25
2019-06-26T17:45:58.091Z,101418.24
2019-06-26T17:48:27.227Z,101415.21
2019-06-26T17:50:58.545Z,101417.73
2019-06-26T17:53:28.294Z,101425.02
2019-06-26T17:55:59.053Z,101418.90
2019-06-26T17:58:32.203Z,101419.74
2019-06-26T18:01:03.649Z,101428.16
2019-06-26T18:03:35.245Z,101430.98
2019-06-26T18:06:10.483Z,101446.09
2019-06-26T18:08:51.718Z,101440.49
2019-06-26T18:11:33.384Z,101438.52
2019-06-26T18:14:04.088Z,101437.69
2019-06-26T18:16:38.943Z,101445.55
2019-06-26T18:19:14.011Z,101446.38
2019-06-26T18:21:49.632Z,101452.78
2019-06-26T18:24:27.754Z,101455.23
2019-06-26T18:26:57.473Z,101467.52
2019-06-26T18:29:32.190Z,101453.77
2019-06-26T18:32:02.352Z,101451.81
2019-06-26T18:34:31.832Z,101457.70
2019-06-26T18:37:07.086Z,101472.50
2019-06-26T18:39:36.032Z,101470.77
2019-06-26T18:42:11.555Z,101466.25
2019-06-26T18:44:40.471Z,101466.53
2019-06-26T18:47:21.704Z,101464.87
2019-06-26T18:49:51.175Z,101475.73
2019-06-26T18:52:21.186Z,101470.87
2019-06-26T18:54:50.223Z,101478.03
2019-06-26T18:57:25.800Z,101474.02
2019-06-26T18:59:58.671Z,101470.91
2019-06-26T19:02:30.726Z,101472.83
2019-06-26T19:05:09.918Z,101481.69
2019-06-26T19:07:42.477Z,101482.44
2019-06-26T19:10:17.778Z,101482.59
2019-06-26T19:12:53.462Z,101477.51
2019-06-26T19:15:25.056Z,101475.13
2019-06-26T19:17:59.993Z,101478.88
2019-06-26T19:20:33.658Z,101485.47
2019-06-26T19:23:01.453Z,101487.84
2019-06-26T19:25:32.359Z,101486.60
2019-06-26T19:28:01.523Z,101487.34
2019-06-26T19:30:30.702Z,101482.23
2019-06-26T19:33:00.897Z,101495.48
2019-06-26T19:35:32.829Z,101500.19
2019-06-26T19:38:02.096Z,101493.98
2019-06-26T19:40:31.548Z,101505.31
2019-06-26T19:43:11.062Z,101498.55
2019-06-26T19:45:39.879Z,101505.69
2019-06-26T19:48:09.625Z,101504.50
2019-06-26T19:50:38.925Z,101510.04
2019-06-26T19:53:15.863Z,101515.54
2019-06-26T19:55:46.607Z,101507.93
2019-06-26T19:58:21.300Z,101519.83
2019-06-26T20:00:48.346Z,101508.64
2019-06-26T20:03:17.748Z,101507.36
2019-06-26T20:05:47.249Z,101510.01
2019-06-26T20:08:17.915Z,101525.54
2019-06-26T20:10:47.523Z,101514.30
2019-06-26T20:13:18.257Z,101514.73
2019-06-26T20:15:47.359Z,101518.52
2019-06-26T20:21:04.773Z,101519.55
2019-06-26T20:23:34.047Z,101525.62
2019-06-26T20:26:03.238Z,101526.41
2019-06-26T20:28:33.912Z,101538.00
2019-06-26T20:31:08.719Z,101537.02
2019-06-26T20:33:38.318Z,101541.42
2019-06-26T20:36:14.361Z,101542.22
2019-06-26T20:38:47.421Z,101548.58
2019-06-26T20:41:17.119Z,101547.38
2019-06-26T20:43:52.070Z,101552.59
2019-06-26T20:46:36.689Z,101554.42
2019-06-26T20:49:06.750Z,101531.56
2019-06-26T20:51:36.941Z,101551.45
2019-06-26T20:54:14.509Z,101556.17
2019-06-26T20:57:01.670Z,101550.55
2019-06-26T20:59:33.965Z,101555.75
2019-06-26T21:02:03.514Z,101561.00
2019-06-26T21:04:33.928Z,101568.13
2019-06-26T21:07:04.760Z,101574.98
2019-06-26T21:09:34.046Z,101575.95
2019-06-26T21:12:04.559Z,101568.61
2019-06-26T21:14:40.049Z,101579.73
2019-06-26T21:17:16.948Z,101578.52
2019-06-26T21:19:52.740Z,101578.16
2019-06-26T21:22:21.989Z,101582.81
2019-06-26T21:24:57.088Z,101583.80
2019-06-26T21:27:26.787Z,101583.75
2019-06-26T21:30:01.982Z,101590.16
2019-06-26T21:32:37.078Z,101587.38
2019-06-26T21:35:12.371Z,101593.75
2019-06-26T21:37:41.541Z,101586.73
2019-06-26T21:40:17.733Z,101592.84
2019-06-26T21:42:54.782Z,101585.28
2019-06-26T21:45:27.416Z,101593.32
2019-06-26T21:48:02.631Z,101590.48
2019-06-26T21:50:32.872Z,101589.57
2019-06-26T21:53:10.589Z,101586.12
2019-06-26T21:55:39.773Z,101590.25
2019-06-26T21:58:09.366Z,101588.26
2019-06-26T22:00:40.975Z,101592.13
2019-06-26T22:03:13.268Z,101593.75
2019-06-26T22:05:42.435Z,101595.31
2019-06-26T22:08:11.704Z,101580.92
2019-06-26T22:10:40.889Z,101581.90
2019-06-26T22:13:10.021Z,101593.70
2019-06-26T22:22:35.095Z,101589.97
2019-06-26T22:25:07.711Z,101596.85
2019-06-26T22:27:44.994Z,101593.23
2019-06-26T22:30:21.827Z,101586.95
2019-06-26T22:33:00.048Z,101596.47
2019-06-26T22:35:34.765Z,101599.11
2019-06-26T22:38:03.865Z,101593.88
2019-06-26T22:40:39.203Z,101601.77
2019-06-26T22:43:13.830Z,101598.56
2019-06-26T22:45:48.759Z,101596.26
2019-06-26T22:48:21.618Z,101595.34
2019-06-26T22:50:53.359Z,101599.97
2019-06-26T22:53:28.178Z,101599.52
2019-06-26T22:56:06.939Z,101599.63
2019-06-26T22:58:34.073Z,101601.10
2019-06-26T23:01:09.468Z,101605.95
2019-06-26T23:03:38.805Z,101598.91
2019-06-26T23:06:10.863Z,101602.38
2019-06-26T23:08:40.437Z,101599.36
2019-06-26T23:11:21.988Z,101601.31
2019-06-26T23:13:57.605Z,101608.86
2019-06-26T23:16:28.786Z,101599.42
2019-06-26T23:19:02.255Z,101603.45
2019-06-26T23:21:34.227Z,101604.52
2019-06-26T23:24:03.349Z,101604.44
2019-06-26T23:26:39.030Z,101607.09
2019-06-26T23:29:14.368Z,101607.33
2019-06-26T23:31:51.346Z,101607.92
2019-06-26T23:34:23.331Z,101611.84
2019-06-26T23:36:59.243Z,101605.73
2019-06-26T23:39:28.881Z,101603.63
2019-06-26T23:42:04.483Z,101608.71
2019-06-26T23:44:39.676Z,101606.89
2019-06-26T23:47:11.555Z,101605.55
2019-06-26T23:49:42.242Z,101603.39
2019-06-26T23:52:20.505Z,101612.94
2019-06-26T23:54:50.604Z,101610.77
2019-06-26T23:57:24.365Z,101611.78
2019-06-26T23:59:56.711Z,101605.83
